sensor_id;sensor_type;location;lat;lon;timestamp;temperature;humidity
4874;DHT22;2451;49.970;9.068;2023-09-19T00:01:43;18.60;99.90
4874;DHT22;2451;49.970;9.068;2023-09-19T00:04:12;18.60;99.90
4874;DHT22;2451;49.970;9.068;2023-09-19T00:06:38;18.60;99.90
4874;DHT22;2451;49.970;9.068;2023-09-19T00:09:04;18.60;99.90
4874;DHT22;2451;49.970;9.068;2023-09-19T00:11:30;18.60;99.90
4874;DHT22;2451;49.970;9.068;2023-09-19T00:13:56;18.60;99.90
4874;DHT22;2451;49.970;9.068;2023-09-19T00:16:24;18.60;99.90
4874;DHT22;2451;49.970;9.068;2023-09-19T00:18:51;18.50;99.90
4874;DHT22;2451;49.970;9.068;2023-09-19T00:21:16;18.50;99.90
4874;DHT22;2451;49.970;9.068;2023-09-19T00:23:42;18.40;99.90
4874;DHT22;2451;49.970;9.068;2023-09-19T00:26:07;18.40;99.90
4874;DHT22;2451;49.970;9.068;2023-09-19T00:28:33;18.30;99.90
4874;DHT22;2451;49.970;9.068;2023-09-19T00:30:59;18.30;99.90
4874;DHT22;2451;49.970;9.068;2023-09-19T00:33:27;18.30;99.90
4874;DHT22;2451;49.970;9.068;2023-09-19T00:35:56;18.30;99.90
4874;DHT22;2451;49.970;9.068;2023-09-19T00:38:22;18.30;99.90
4874;DHT22;2451;49.970;9.068;2023-09-19T00:40:53;18.30;99.90
4874;DHT22;2451;49.970;9.068;2023-09-19T00:43:20;18.30;99.90
4874;DHT22;2451;49.970;9.068;2023-09-19T00:45:47;18.30;99.90
4874;DHT22;2451;49.970;9.068;2023-09-19T00:48:14;18.30;99.90
4874;DHT22;2451;49.970;9.068;2023-09-19T00:50:42;18.20;99.90
4874;DHT22;2451;49.970;9.068;2023-09-19T00:53:09;18.20;99.90
4874;DHT22;2451;49.970;9.068;2023-09-19T00:55:39;18.20;99.90
4874;DHT22;2451;49.970;9.068;2023-09-19T00:58:06;18.20;99.90
4874;DHT22;2451;49.970;9.068;2023-09-19T01:00:32;18.20;99.90
4874;DHT22;2451;49.970;9.068;2023-09-19T01:02:59;18.20;99.90
4874;DHT22;2451;49.970;9.068;2023-09-19T01:05:26;18.10;99.90
4874;DHT22;2451;49.970;9.068;2023-09-19T01:07:52;18.20;99.90
4874;DHT22;2451;49.970;9.068;2023-09-19T01:10:19;18.20;99.90
4874;DHT22;2451;49.970;9.068;2023-09-19T01:18:26;18.10;99.90
4874;DHT22;2451;49.970;9.068;2023-09-19T01:32:08;18.20;99.90
4874;DHT22;2451;49.970;9.068;2023-09-19T01:34:48;18.10;99.90
4874;DHT22;2451;49.970;9.068;2023-09-19T01:37:18;18.10;99.90
4874;DHT22;2451;49.970;9.068;2023-09-19T01:39:50;18.10;99.90
4874;DHT22;2451;49.970;9.068;2023-09-19T01:42:21;18.10;99.90
4874;DHT22;2451;49.970;9.068;2023-09-19T01:45:16;18.10;99.90
4874;DHT22;2451;49.970;9.068;2023-09-19T01:47:52;18.20;99.90
4874;DHT22;2451;49.970;9.068;2023-09-19T01:50:29;18.20;99.90
4874;DHT22;2451;49.970;9.068;2023-09-19T01:53:05;18.10;99.90
4874;DHT22;2451;49.970;9.068;2023-09-19T01:55:37;18.20;99.90
4874;DHT22;2451;49.970;9.068;2023-09-19T01:58:13;18.10;99.90
4874;DHT22;2451;49.970;9.068;2023-09-19T02:00:41;18.10;99.90
4874;DHT22;2451;49.970;9.068;2023-09-19T02:03:09;18.10;99.90
4874;DHT22;2451;49.970;9.068;2023-09-19T02:05:36;18.20;99.90
4874;DHT22;2451;49.970;9.068;2023-09-19T02:08:03;18.20;99.90
4874;DHT22;2451;49.970;9.068;2023-09-19T02:10:28;18.20;99.90
4874;DHT22;2451;49.970;9.068;2023-09-19T02:12:54;18.20;99.90
4874;DHT22;2451;49.970;9.068;2023-09-19T02:15:20;18.20;99.90
4874;DHT22;2451;49.970;9.068;2023-09-19T02:17:45;18.20;99.90
4874;DHT22;2451;49.970;9.068;2023-09-19T02:20:12;18.20;99.90
4874;DHT22;2451;49.970;9.068;2023-09-19T02:22:43;18.20;99.90
4874;DHT22;2451;49.970;9.068;2023-09-19T02:25:09;18.20;99.90
4874;DHT22;2451;49.970;9.068;2023-09-19T02:27:35;18.20;99.90
4874;DHT22;2451;49.970;9.068;2023-09-19T02:30:01;18.20;99.90
4874;DHT22;2451;49.970;9.068;2023-09-19T02:32:29;18.10;99.90
4874;DHT22;2451;49.970;9.068;2023-09-19T02:34:57;18.20;99.90
4874;DHT22;2451;49.970;9.068;2023-09-19T02:37:23;18.20;99.90
4874;DHT22;2451;49.970;9.068;2023-09-19T02:39:48;18.20;99.90
4874;DHT22;2451;49.970;9.068;2023-09-19T02:42:14;18.20;99.90
4874;DHT22;2451;49.970;9.068;2023-09-19T02:44:40;18.10;99.90
4874;DHT22;2451;49.970;9.068;2023-09-19T02:47:05;18.20;99.90
4874;DHT22;2451;49.970;9.068;2023-09-19T02:49:31;18.10;99.90
4874;DHT22;2451;49.970;9.068;2023-09-19T02:51:57;18.10;99.90
4874;DHT22;2451;49.970;9.068;2023-09-19T02:54:24;18.10;99.90
4874;DHT22;2451;49.970;9.068;2023-09-19T02:56:50;18.10;99.90
4874;DHT22;2451;49.970;9.068;2023-09-19T02:59:15;18.10;99.90
4874;DHT22;2451;49.970;9.068;2023-09-19T03:01:43;18.10;99.90
4874;DHT22;2451;49.970;9.068;2023-09-19T03:04:09;18.00;99.90
4874;DHT22;2451;49.970;9.068;2023-09-19T03:06:37;18.00;99.90
4874;DHT22;2451;49.970;9.068;2023-09-19T03:09:04;18.00;99.90
4874;DHT22;2451;49.970;9.068;2023-09-19T03:11:31;18.00;99.90
4874;DHT22;2451;49.970;9.068;2023-09-19T03:13:57;17.90;99.90
4874;DHT22;2451;49.970;9.068;2023-09-19T03:16:23;17.90;99.90
4874;DHT22;2451;49.970;9.068;2023-09-19T03:18:50;17.90;99.90
4874;DHT22;2451;49.970;9.068;2023-09-19T03:21:16;17.90;99.90
4874;DHT22;2451;49.970;9.068;2023-09-19T03:23:43;17.90;99.90
4874;DHT22;2451;49.970;9.068;2023-09-19T03:26:13;17.80;99.90
4874;DHT22;2451;49.970;9.068;2023-09-19T03:28:42;17.80;99.90
4874;DHT22;2451;49.970;9.068;2023-09-19T03:31:08;17.70;99.90
4874;DHT22;2451;49.970;9.068;2023-09-19T03:33:34;17.70;99.90
4874;DHT22;2451;49.970;9.068;2023-09-19T03:36:01;17.70;99.90
4874;DHT22;2451;49.970;9.068;2023-09-19T03:38:30;17.60;99.90
4874;DHT22;2451;49.970;9.068;2023-09-19T03:40:55;17.60;99.90
4874;DHT22;2451;49.970;9.068;2023-09-19T03:43:21;17.60;99.90
4874;DHT22;2451;49.970;9.068;2023-09-19T03:45:47;17.50;99.90
4874;DHT22;2451;49.970;9.068;2023-09-19T03:48:13;17.50;99.90
4874;DHT22;2451;49.970;9.068;2023-09-19T03:50:39;17.50;99.90
4874;DHT22;2451;49.970;9.068;2023-09-19T03:53:05;17.50;99.90
4874;DHT22;2451;49.970;9.068;2023-09-19T03:55:32;17.50;99.90
4874;DHT22;2451;49.970;9.068;2023-09-19T03:58:01;17.50;99.90
4874;DHT22;2451;49.970;9.068;2023-09-19T04:00:26;17.40;99.90
4874;DHT22;2451;49.970;9.068;2023-09-19T04:02:52;17.40;99.90
4874;DHT22;2451;49.970;9.068;2023-09-19T04:05:18;17.30;99.90
4874;DHT22;2451;49.970;9.068;2023-09-19T04:07:44;17.20;99.90
4874;DHT22;2451;49.970;9.068;2023-09-19T04:10:10;17.20;99.90
4874;DHT22;2451;49.970;9.068;2023-09-19T04:12:40;17.10;99.90
4874;DHT22;2451;49.970;9.068;2023-09-19T04:15:06;17.10;99.90
4874;DHT22;2451;49.970;9.068;2023-09-19T04:17:32;17.20;99.90
4874;DHT22;2451;49.970;9.068;2023-09-19T04:20:01;17.10;99.90
4874;DHT22;2451;49.970;9.068;2023-09-19T04:22:26;17.10;99.90
4874;DHT22;2451;49.970;9.068;2023-09-19T04:24:52;17.10;99.90
4874;DHT22;2451;49.970;9.068;2023-09-19T04:27:17;17.10;99.90
4874;DHT22;2451;49.970;9.068;2023-09-19T04:29:44;17.10;99.90
4874;DHT22;2451;49.970;9.068;2023-09-19T04:32:10;17.00;99.90
4874;DHT22;2451;49.970;9.068;2023-09-19T04:34:36;17.00;99.90
4874;DHT22;2451;49.970;9.068;2023-09-19T04:37:02;17.00;99.90
4874;DHT22;2451;49.970;9.068;2023-09-19T04:39:29;17.00;99.90
4874;DHT22;2451;49.970;9.068;2023-09-19T04:41:54;17.00;99.90
4874;DHT22;2451;49.970;9.068;2023-09-19T04:44:20;17.10;99.90
4874;DHT22;2451;49.970;9.068;2023-09-19T04:46:48;17.20;99.90
4874;DHT22;2451;49.970;9.068;2023-09-19T04:49:14;17.20;99.90
4874;DHT22;2451;49.970;9.068;2023-09-19T04:51:39;17.30;99.90
4874;DHT22;2451;49.970;9.068;2023-09-19T04:54:05;17.40;99.90
4874;DHT22;2451;49.970;9.068;2023-09-19T04:56:32;17.40;99.90
4874;DHT22;2451;49.970;9.068;2023-09-19T04:58:58;17.40;99.90
4874;DHT22;2451;49.970;9.068;2023-09-19T05:01:24;17.50;99.90
4874;DHT22;2451;49.970;9.068;2023-09-19T05:03:50;17.50;99.90
4874;DHT22;2451;49.970;9.068;2023-09-19T05:06:19;17.50;99.90
4874;DHT22;2451;49.970;9.068;2023-09-19T05:08:48;17.50;99.90
4874;DHT22;2451;49.970;9.068;2023-09-19T05:11:18;17.50;99.90
4874;DHT22;2451;49.970;9.068;2023-09-19T05:13:44;17.50;99.90
4874;DHT22;2451;49.970;9.068;2023-09-19T05:16:09;17.60;99.90
4874;DHT22;2451;49.970;9.068;2023-09-19T05:18:35;17.60;99.90
4874;DHT22;2451;49.970;9.068;2023-09-19T05:21:02;17.60;99.90
4874;DHT22;2451;49.970;9.068;2023-09-19T05:23:28;17.50;99.90
4874;DHT22;2451;49.970;9.068;2023-09-19T05:25:54;17.40;99.90
4874;DHT22;2451;49.970;9.068;2023-09-19T05:28:22;17.40;99.90
4874;DHT22;2451;49.970;9.068;2023-09-19T05:30:47;17.30;99.90
4874;DHT22;2451;49.970;9.068;2023-09-19T05:33:14;17.30;99.90
4874;DHT22;2451;49.970;9.068;2023-09-19T05:35:39;17.30;99.90
4874;DHT22;2451;49.970;9.068;2023-09-19T05:38:07;17.20;99.90
4874;DHT22;2451;49.970;9.068;2023-09-19T05:40:34;17.20;99.90
4874;DHT22;2451;49.970;9.068;2023-09-19T05:43:00;17.10;99.90
4874;DHT22;2451;49.970;9.068;2023-09-19T05:45:26;17.10;99.90
4874;DHT22;2451;49.970;9.068;2023-09-19T05:47:53;17.00;99.90
4874;DHT22;2451;49.970;9.068;2023-09-19T05:50:26;17.00;99.90
4874;DHT22;2451;49.970;9.068;2023-09-19T05:52:52;17.00;99.90
4874;DHT22;2451;49.970;9.068;2023-09-19T05:55:18;17.00;99.90
4874;DHT22;2451;49.970;9.068;2023-09-19T05:57:52;16.90;99.90
4874;DHT22;2451;49.970;9.068;2023-09-19T06:00:23;16.90;99.90
4874;DHT22;2451;49.970;9.068;2023-09-19T06:02:56;16.90;99.90
4874;DHT22;2451;49.970;9.068;2023-09-19T06:05:25;16.90;99.90
4874;DHT22;2451;49.970;9.068;2023-09-19T06:07:57;17.00;99.90
4874;DHT22;2451;49.970;9.068;2023-09-19T06:10:26;17.00;99.90
4874;DHT22;2451;49.970;9.068;2023-09-19T06:12:53;16.90;99.90
4874;DHT22;2451;49.970;9.068;2023-09-19T06:15:20;17.00;99.90
4874;DHT22;2451;49.970;9.068;2023-09-19T06:17:55;17.00;99.90
4874;DHT22;2451;49.970;9.068;2023-09-19T06:20:22;17.00;99.90
4874;DHT22;2451;49.970;9.068;2023-09-19T06:22:48;17.10;99.90
4874;DHT22;2451;49.970;9.068;2023-09-19T06:25:15;17.10;99.90
4874;DHT22;2451;49.970;9.068;2023-09-19T06:27:48;17.20;99.90
4874;DHT22;2451;49.970;9.068;2023-09-19T06:30:14;17.20;99.90
4874;DHT22;2451;49.970;9.068;2023-09-19T06:32:40;17.30;99.90
4874;DHT22;2451;49.970;9.068;2023-09-19T06:35:12;17.30;99.90
4874;DHT22;2451;49.970;9.068;2023-09-19T06:37:38;17.40;99.90
4874;DHT22;2451;49.970;9.068;2023-09-19T06:40:14;17.50;99.90
4874;DHT22;2451;49.970;9.068;2023-09-19T06:42:44;17.40;99.90
4874;DHT22;2451;49.970;9.068;2023-09-19T06:45:11;17.50;99.90
4874;DHT22;2451;49.970;9.068;2023-09-19T06:47:39;17.50;99.90
4874;DHT22;2451;49.970;9.068;2023-09-19T06:50:05;17.50;99.90
4874;DHT22;2451;49.970;9.068;2023-09-19T06:52:34;17.50;99.90
4874;DHT22;2451;49.970;9.068;2023-09-19T06:55:00;17.50;99.90
4874;DHT22;2451;49.970;9.068;2023-09-19T06:57:28;17.60;99.90
4874;DHT22;2451;49.970;9.068;2023-09-19T06:59:55;17.60;99.90
4874;DHT22;2451;49.970;9.068;2023-09-19T07:02:21;17.60;99.90
4874;DHT22;2451;49.970;9.068;2023-09-19T07:04:47;17.70;99.90
4874;DHT22;2451;49.970;9.068;2023-09-19T07:07:12;17.70;99.90
4874;DHT22;2451;49.970;9.068;2023-09-19T07:09:39;17.70;99.90
4874;DHT22;2451;49.970;9.068;2023-09-19T07:12:05;17.70;99.90
4874;DHT22;2451;49.970;9.068;2023-09-19T07:14:30;17.70;99.90
4874;DHT22;2451;49.970;9.068;2023-09-19T07:16:56;17.70;99.90
4874;DHT22;2451;49.970;9.068;2023-09-19T07:19:22;17.80;99.90
4874;DHT22;2451;49.970;9.068;2023-09-19T07:21:47;17.80;99.90
4874;DHT22;2451;49.970;9.068;2023-09-19T07:24:15;17.90;99.90
4874;DHT22;2451;49.970;9.068;2023-09-19T07:26:41;17.90;99.90
4874;DHT22;2451;49.970;9.068;2023-09-19T07:29:06;17.90;99.90
4874;DHT22;2451;49.970;9.068;2023-09-19T07:31:34;17.90;99.90
4874;DHT22;2451;49.970;9.068;2023-09-19T07:33:59;18.10;99.90
4874;DHT22;2451;49.970;9.068;2023-09-19T07:36:25;18.10;99.90
4874;DHT22;2451;49.970;9.068;2023-09-19T07:38:50;18.10;99.90
4874;DHT22;2451;49.970;9.068;2023-09-19T07:41:16;18.10;99.90
4874;DHT22;2451;49.970;9.068;2023-09-19T07:43:41;18.10;99.90
4874;DHT22;2451;49.970;9.068;2023-09-19T07:46:08;18.20;99.90
4874;DHT22;2451;49.970;9.068;2023-09-19T07:48:37;18.20;99.90
4874;DHT22;2451;49.970;9.068;2023-09-19T07:51:05;18.20;99.90
4874;DHT22;2451;49.970;9.068;2023-09-19T07:53:31;18.30;99.90
4874;DHT22;2451;49.970;9.068;2023-09-19T07:56:04;18.30;99.90
4874;DHT22;2451;49.970;9.068;2023-09-19T07:58:30;18.30;99.90
4874;DHT22;2451;49.970;9.068;2023-09-19T08:01:01;18.40;99.90
4874;DHT22;2451;49.970;9.068;2023-09-19T08:03:27;18.40;99.90
4874;DHT22;2451;49.970;9.068;2023-09-19T08:05:52;18.50;99.90
4874;DHT22;2451;49.970;9.068;2023-09-19T08:08:18;18.50;99.90
4874;DHT22;2451;49.970;9.068;2023-09-19T08:10:43;18.40;99.90
4874;DHT22;2451;49.970;9.068;2023-09-19T08:13:14;18.50;99.90
4874;DHT22;2451;49.970;9.068;2023-09-19T08:15:45;18.60;99.90
4874;DHT22;2451;49.970;9.068;2023-09-19T08:18:10;18.60;99.90
4874;DHT22;2451;49.970;9.068;2023-09-19T08:20:39;18.70;99.90
4874;DHT22;2451;49.970;9.068;2023-09-19T08:23:08;18.70;99.90
4874;DHT22;2451;49.970;9.068;2023-09-19T08:25:33;18.80;99.90
4874;DHT22;2451;49.970;9.068;2023-09-19T08:27:59;19.00;99.90
4874;DHT22;2451;49.970;9.068;2023-09-19T08:30:28;19.20;99.90
4874;DHT22;2451;49.970;9.068;2023-09-19T08:33:02;19.30;99.90
4874;DHT22;2451;49.970;9.068;2023-09-19T08:35:31;19.40;99.90
4874;DHT22;2451;49.970;9.068;2023-09-19T08:37:57;19.40;99.90
4874;DHT22;2451;49.970;9.068;2023-09-19T08:40:23;19.30;99.90
4874;DHT22;2451;49.970;9.068;2023-09-19T08:45:15;19.30;99.90
4874;DHT22;2451;49.970;9.068;2023-09-19T08:47:46;19.40;99.90
4874;DHT22;2451;49.970;9.068;2023-09-19T08:50:19;19.40;99.90
4874;DHT22;2451;49.970;9.068;2023-09-19T08:52:46;19.30;99.90
4874;DHT22;2451;49.970;9.068;2023-09-19T08:55:13;19.30;99.90
4874;DHT22;2451;49.970;9.068;2023-09-19T08:57:46;19.20;99.90
4874;DHT22;2451;49.970;9.068;2023-09-19T09:00:15;19.20;99.90
4874;DHT22;2451;49.970;9.068;2023-09-19T09:02:43;19.20;99.90
4874;DHT22;2451;49.970;9.068;2023-09-19T09:05:10;19.10;99.90
4874;DHT22;2451;49.970;9.068;2023-09-19T09:07:37;19.10;99.90
4874;DHT22;2451;49.970;9.068;2023-09-19T09:10:03;19.00;99.90
4874;DHT22;2451;49.970;9.068;2023-09-19T09:12:30;18.90;99.90
4874;DHT22;2451;49.970;9.068;2023-09-19T09:14:56;18.90;99.90
4874;DHT22;2451;49.970;9.068;2023-09-19T09:17:23;19.00;99.90
4874;DHT22;2451;49.970;9.068;2023-09-19T09:19:52;19.10;99.90
4874;DHT22;2451;49.970;9.068;2023-09-19T09:22:17;19.30;99.90
4874;DHT22;2451;49.970;9.068;2023-09-19T09:24:57;19.40;99.90
4874;DHT22;2451;49.970;9.068;2023-09-19T09:27:30;19.60;99.90
4874;DHT22;2451;49.970;9.068;2023-09-19T09:29:56;19.50;99.90
4874;DHT22;2451;49.970;9.068;2023-09-19T09:32:27;19.70;99.90
4874;DHT22;2451;49.970;9.068;2023-09-19T09:35:00;19.70;99.90
4874;DHT22;2451;49.970;9.068;2023-09-19T09:37:26;19.70;99.90
4874;DHT22;2451;49.970;9.068;2023-09-19T09:39:58;19.90;99.90
4874;DHT22;2451;49.970;9.068;2023-09-19T09:42:38;20.00;99.90
4874;DHT22;2451;49.970;9.068;2023-09-19T09:45:20;19.90;99.90
4874;DHT22;2451;49.970;9.068;2023-09-19T09:47:58;20.00;99.90
4874;DHT22;2451;49.970;9.068;2023-09-19T09:50:30;20.00;99.90
4874;DHT22;2451;49.970;9.068;2023-09-19T09:53:29;20.00;99.90
4874;DHT22;2451;49.970;9.068;2023-09-19T09:56:03;20.10;99.90
4874;DHT22;2451;49.970;9.068;2023-09-19T09:58:40;20.20;99.90
4874;DHT22;2451;49.970;9.068;2023-09-19T10:01:14;20.40;99.90
4874;DHT22;2451;49.970;9.068;2023-09-19T10:03:44;20.60;99.90
4874;DHT22;2451;49.970;9.068;2023-09-19T10:06:14;20.70;99.90
4874;DHT22;2451;49.970;9.068;2023-09-19T10:09:08;20.90;99.90
4874;DHT22;2451;49.970;9.068;2023-09-19T10:12:03;21.30;99.90
4874;DHT22;2451;49.970;9.068;2023-09-19T10:14:33;21.70;99.90
4874;DHT22;2451;49.970;9.068;2023-09-19T10:17:05;21.80;99.90
4874;DHT22;2451;49.970;9.068;2023-09-19T10:19:43;21.70;99.90
4874;DHT22;2451;49.970;9.068;2023-09-19T10:22:12;21.90;99.90
4874;DHT22;2451;49.970;9.068;2023-09-19T10:24:40;21.70;99.90
4874;DHT22;2451;49.970;9.068;2023-09-19T10:27:07;21.50;99.90
4874;DHT22;2451;49.970;9.068;2023-09-19T10:29:36;21.30;99.90
4874;DHT22;2451;49.970;9.068;2023-09-19T10:32:04;21.10;99.90
4874;DHT22;2451;49.970;9.068;2023-09-19T10:34:35;21.30;99.90
4874;DHT22;2451;49.970;9.068;2023-09-19T10:37:02;21.50;99.90
4874;DHT22;2451;49.970;9.068;2023-09-19T10:39:32;21.60;99.90
4874;DHT22;2451;49.970;9.068;2023-09-19T10:42:02;21.70;99.90
4874;DHT22;2451;49.970;9.068;2023-09-19T10:44:32;21.70;99.90
4874;DHT22;2451;49.970;9.068;2023-09-19T10:46:58;21.90;99.90
4874;DHT22;2451;49.970;9.068;2023-09-19T10:49:24;22.20;99.90
4874;DHT22;2451;49.970;9.068;2023-09-19T10:51:54;22.30;99.90
4874;DHT22;2451;49.970;9.068;2023-09-19T10:54:30;22.30;99.90
4874;DHT22;2451;49.970;9.068;2023-09-19T10:56:58;22.50;99.90
4874;DHT22;2451;49.970;9.068;2023-09-19T10:59:24;22.80;99.90
4874;DHT22;2451;49.970;9.068;2023-09-19T11:01:52;22.90;99.90
4874;DHT22;2451;49.970;9.068;2023-09-19T11:04:34;22.70;99.80
4874;DHT22;2451;49.970;9.068;2023-09-19T11:09:53;22.90;99.00
4874;DHT22;2451;49.970;9.068;2023-09-19T11:24:28;22.80;98.10
4874;DHT22;2451;49.970;9.068;2023-09-19T11:27:13;22.90;96.20
4874;DHT22;2451;49.970;9.068;2023-09-19T11:29:40;23.20;97.40
4874;DHT22;2451;49.970;9.068;2023-09-19T11:32:06;23.20;95.50
4874;DHT22;2451;49.970;9.068;2023-09-19T11:34:42;23.00;95.90
4874;DHT22;2451;49.970;9.068;2023-09-19T11:39:37;23.10;94.70
4874;DHT22;2451;49.970;9.068;2023-09-19T11:42:41;23.10;94.90
4874;DHT22;2451;49.970;9.068;2023-09-19T11:45:07;23.10;93.50
4874;DHT22;2451;49.970;9.068;2023-09-19T11:47:34;23.30;93.30
4874;DHT22;2451;49.970;9.068;2023-09-19T11:50:01;23.20;93.10
4874;DHT22;2451;49.970;9.068;2023-09-19T11:52:28;23.40;92.80
4874;DHT22;2451;49.970;9.068;2023-09-19T11:55:00;23.70;94.20
4874;DHT22;2451;49.970;9.068;2023-09-19T11:57:28;23.80;92.30
4874;DHT22;2451;49.970;9.068;2023-09-19T11:59:55;23.30;92.50
4874;DHT22;2451;49.970;9.068;2023-09-19T12:02:35;23.30;92.60
4874;DHT22;2451;49.970;9.068;2023-09-19T12:05:05;23.50;93.10
4874;DHT22;2451;49.970;9.068;2023-09-19T12:07:42;23.90;93.80
4874;DHT22;2451;49.970;9.068;2023-09-19T12:10:11;23.80;92.70
4874;DHT22;2451;49.970;9.068;2023-09-19T12:12:37;23.90;92.80
4874;DHT22;2451;49.970;9.068;2023-09-19T12:15:03;23.60;92.60
4874;DHT22;2451;49.970;9.068;2023-09-19T12:17:36;23.80;92.30
4874;DHT22;2451;49.970;9.068;2023-09-19T12:20:02;24.00;91.50
4874;DHT22;2451;49.970;9.068;2023-09-19T12:22:54;24.00;91.90
4874;DHT22;2451;49.970;9.068;2023-09-19T12:25:20;24.10;91.10
4874;DHT22;2451;49.970;9.068;2023-09-19T12:27:48;24.00;91.90
4874;DHT22;2451;49.970;9.068;2023-09-19T12:30:19;24.00;91.40
4874;DHT22;2451;49.970;9.068;2023-09-19T12:32:46;24.10;91.00
4874;DHT22;2451;49.970;9.068;2023-09-19T12:35:31;24.30;89.50
4874;DHT22;2451;49.970;9.068;2023-09-19T12:38:00;24.30;90.50
4874;DHT22;2451;49.970;9.068;2023-09-19T12:40:26;24.40;89.40
4874;DHT22;2451;49.970;9.068;2023-09-19T12:42:54;24.50;89.50
4874;DHT22;2451;49.970;9.068;2023-09-19T12:45:21;24.40;89.10
4874;DHT22;2451;49.970;9.068;2023-09-19T12:48:24;24.60;90.20
4874;DHT22;2451;49.970;9.068;2023-09-19T12:51:10;24.90;90.10
4874;DHT22;2451;49.970;9.068;2023-09-19T12:53:44;24.90;88.20
4874;DHT22;2451;49.970;9.068;2023-09-19T12:56:17;24.70;89.30
4874;DHT22;2451;49.970;9.068;2023-09-19T13:01:16;24.90;86.50
4874;DHT22;2451;49.970;9.068;2023-09-19T13:03:42;24.90;87.30
4874;DHT22;2451;49.970;9.068;2023-09-19T13:06:07;25.10;86.60
4874;DHT22;2451;49.970;9.068;2023-09-19T13:08:37;25.20;86.20
4874;DHT22;2451;49.970;9.068;2023-09-19T13:11:17;25.00;83.60
4874;DHT22;2451;49.970;9.068;2023-09-19T13:16:29;25.00;85.00
4874;DHT22;2451;49.970;9.068;2023-09-19T13:18:55;25.10;84.30
4874;DHT22;2451;49.970;9.068;2023-09-19T13:21:28;25.20;83.90
4874;DHT22;2451;49.970;9.068;2023-09-19T13:23:56;25.00;84.40
4874;DHT22;2451;49.970;9.068;2023-09-19T13:26:27;25.20;82.80
4874;DHT22;2451;49.970;9.068;2023-09-19T13:28:54;25.30;82.90
4874;DHT22;2451;49.970;9.068;2023-09-19T13:31:20;25.50;84.50
4874;DHT22;2451;49.970;9.068;2023-09-19T13:33:47;25.30;81.50
4874;DHT22;2451;49.970;9.068;2023-09-19T13:36:13;25.00;83.50
4874;DHT22;2451;49.970;9.068;2023-09-19T13:38:42;24.90;81.90
4874;DHT22;2451;49.970;9.068;2023-09-19T13:41:09;25.00;82.50
4874;DHT22;2451;49.970;9.068;2023-09-19T13:43:36;24.70;82.50
4874;DHT22;2451;49.970;9.068;2023-09-19T13:46:01;24.30;83.60
4874;DHT22;2451;49.970;9.068;2023-09-19T13:48:27;24.30;86.00
4874;DHT22;2451;49.970;9.068;2023-09-19T13:50:55;24.20;86.60
4874;DHT22;2451;49.970;9.068;2023-09-19T13:53:21;24.30;85.90
4874;DHT22;2451;49.970;9.068;2023-09-19T13:55:46;24.40;86.60
4874;DHT22;2451;49.970;9.068;2023-09-19T13:58:14;24.40;86.40
4874;DHT22;2451;49.970;9.068;2023-09-19T14:00:39;24.40;86.30
4874;DHT22;2451;49.970;9.068;2023-09-19T14:03:05;24.40;86.20
4874;DHT22;2451;49.970;9.068;2023-09-19T14:05:31;24.60;86.90
4874;DHT22;2451;49.970;9.068;2023-09-19T14:07:57;24.20;86.90
4874;DHT22;2451;49.970;9.068;2023-09-19T14:10:24;24.20;87.30
4874;DHT22;2451;49.970;9.068;2023-09-19T14:12:51;24.30;87.30
4874;DHT22;2451;49.970;9.068;2023-09-19T14:15:17;24.20;86.50
4874;DHT22;2451;49.970;9.068;2023-09-19T14:17:42;24.00;86.20
4874;DHT22;2451;49.970;9.068;2023-09-19T14:20:10;23.80;87.40
4874;DHT22;2451;49.970;9.068;2023-09-19T14:22:36;23.50;88.00
4874;DHT22;2451;49.970;9.068;2023-09-19T14:25:03;23.50;90.50
4874;DHT22;2451;49.970;9.068;2023-09-19T14:27:29;23.50;89.80
4874;DHT22;2451;49.970;9.068;2023-09-19T14:29:55;23.60;89.10
4874;DHT22;2451;49.970;9.068;2023-09-19T14:32:23;23.70;89.60
4874;DHT22;2451;49.970;9.068;2023-09-19T14:34:48;23.60;88.90
4874;DHT22;2451;49.970;9.068;2023-09-19T14:37:15;23.70;90.70
4874;DHT22;2451;49.970;9.068;2023-09-19T14:39:41;23.90;90.10
4874;DHT22;2451;49.970;9.068;2023-09-19T14:42:10;23.90;90.10
4874;DHT22;2451;49.970;9.068;2023-09-19T14:44:36;24.00;90.40
4874;DHT22;2451;49.970;9.068;2023-09-19T14:47:03;24.20;91.40
4874;DHT22;2451;49.970;9.068;2023-09-19T14:49:33;24.20;89.00
4874;DHT22;2451;49.970;9.068;2023-09-19T14:51:59;24.10;90.00
4874;DHT22;2451;49.970;9.068;2023-09-19T14:54:24;24.00;90.00
4874;DHT22;2451;49.970;9.068;2023-09-19T14:56:50;24.00;90.20
4874;DHT22;2451;49.970;9.068;2023-09-19T14:59:21;23.90;90.50
4874;DHT22;2451;49.970;9.068;2023-09-19T15:01:46;23.90;91.20
4874;DHT22;2451;49.970;9.068;2023-09-19T15:04:15;23.80;91.10
4874;DHT22;2451;49.970;9.068;2023-09-19T15:06:41;23.80;91.10
4874;DHT22;2451;49.970;9.068;2023-09-19T15:09:06;23.80;91.90
4874;DHT22;2451;49.970;9.068;2023-09-19T15:11:34;23.70;92.30
4874;DHT22;2451;49.970;9.068;2023-09-19T15:13:59;23.50;91.40
4874;DHT22;2451;49.970;9.068;2023-09-19T15:16:25;23.60;91.90
4874;DHT22;2451;49.970;9.068;2023-09-19T15:18:50;23.50;91.80
4874;DHT22;2451;49.970;9.068;2023-09-19T15:21:17;23.50;92.00
4874;DHT22;2451;49.970;9.068;2023-09-19T15:23:43;23.40;91.90
4874;DHT22;2451;49.970;9.068;2023-09-19T15:26:13;23.40;92.10
4874;DHT22;2451;49.970;9.068;2023-09-19T15:28:39;23.20;92.10
4874;DHT22;2451;49.970;9.068;2023-09-19T15:31:07;23.00;92.60
4874;DHT22;2451;49.970;9.068;2023-09-19T15:33:34;23.00;93.40
4874;DHT22;2451;49.970;9.068;2023-09-19T15:36:04;22.90;93.20
4874;DHT22;2451;49.970;9.068;2023-09-19T15:38:30;22.90;93.60
4874;DHT22;2451;49.970;9.068;2023-09-19T15:40:57;22.90;93.90
4874;DHT22;2451;49.970;9.068;2023-09-19T15:43:23;22.90;93.90
4874;DHT22;2451;49.970;9.068;2023-09-19T15:45:49;23.00;94.80
4874;DHT22;2451;49.970;9.068;2023-09-19T15:48:15;23.00;94.30
4874;DHT22;2451;49.970;9.068;2023-09-19T15:50:41;22.90;94.20
4874;DHT22;2451;49.970;9.068;2023-09-19T15:53:07;23.00;94.50
4874;DHT22;2451;49.970;9.068;2023-09-19T15:55:38;23.00;94.80
4874;DHT22;2451;49.970;9.068;2023-09-19T15:58:08;23.00;95.10
4874;DHT22;2451;49.970;9.068;2023-09-19T16:00:34;22.90;95.10
4874;DHT22;2451;49.970;9.068;2023-09-19T16:03:00;22.90;95.00
4874;DHT22;2451;49.970;9.068;2023-09-19T16:05:26;22.80;95.30
4874;DHT22;2451;49.970;9.068;2023-09-19T16:07:52;22.60;95.70
4874;DHT22;2451;49.970;9.068;2023-09-19T16:10:18;22.60;96.10
4874;DHT22;2451;49.970;9.068;2023-09-19T16:12:43;22.50;95.90
4874;DHT22;2451;49.970;9.068;2023-09-19T16:15:09;22.40;96.30
4874;DHT22;2451;49.970;9.068;2023-09-19T16:17:37;22.30;95.90
4874;DHT22;2451;49.970;9.068;2023-09-19T16:20:03;22.20;96.80
4874;DHT22;2451;49.970;9.068;2023-09-19T16:22:28;22.10;96.40
4874;DHT22;2451;49.970;9.068;2023-09-19T16:24:54;22.10;97.00
4874;DHT22;2451;49.970;9.068;2023-09-19T16:27:19;22.00;97.60
4874;DHT22;2451;49.970;9.068;2023-09-19T16:29:47;22.00;98.70
4874;DHT22;2451;49.970;9.068;2023-09-19T16:32:14;21.90;99.10
4874;DHT22;2451;49.970;9.068;2023-09-19T16:34:40;21.80;99.90
4874;DHT22;2451;49.970;9.068;2023-09-19T16:37:06;21.80;99.90
4874;DHT22;2451;49.970;9.068;2023-09-19T16:39:32;21.90;99.60
4874;DHT22;2451;49.970;9.068;2023-09-19T16:41:58;21.80;98.90
4874;DHT22;2451;49.970;9.068;2023-09-19T16:44:23;21.70;99.10
4874;DHT22;2451;49.970;9.068;2023-09-19T16:46:49;21.70;99.00
4874;DHT22;2451;49.970;9.068;2023-09-19T16:49:14;21.60;99.40
4874;DHT22;2451;49.970;9.068;2023-09-19T16:51:40;21.60;99.80